createdAt,value
2018-06-09T00:02:02.338Z,15.43
2018-06-09T00:04:29.888Z,15.20
2018-06-09T00:06:57.403Z,17.13
2018-06-09T00:09:26.535Z,14.27
2018-06-09T00:11:55.111Z,20.10
2018-06-09T00:14:23.374Z,16.80
2018-06-09T00:16:51.560Z,17.00
2018-06-09T00:19:19.111Z,16.37
2018-06-09T00:21:46.614Z,15.87
2018-06-09T00:24:14.213Z,13.73
2018-06-09T00:26:41.707Z,16.27
2018-06-09T00:29:09.241Z,22.67
2018-06-09T00:31:37.440Z,18.47
2018-06-09T00:34:04.856Z,20.20
2018-06-09T00:36:32.445Z,16.63
2018-06-09T00:38:59.839Z,16.60
2018-06-09T00:41:27.347Z,15.77
2018-06-09T00:43:54.863Z,21.07
2018-06-09T00:46:22.444Z,19.63
2018-06-09T00:48:50.503Z,19.30
2018-06-09T00:51:18.004Z,19.77
2018-06-09T00:53:46.083Z,23.40
2018-06-09T00:56:25.088Z,18.77
2018-06-09T00:58:53.199Z,26.30
2018-06-09T01:01:20.695Z,19.80
2018-06-09T01:03:48.604Z,22.73
2018-06-09T01:06:16.075Z,17.20
2018-06-09T01:08:44.220Z,20.27
2018-06-09T01:11:11.738Z,15.90
2018-06-09T01:13:39.837Z,16.40
2018-06-09T01:16:07.985Z,22.27
2018-06-09T01:18:35.688Z,24.27
2018-06-09T01:21:03.231Z,21.53
2018-06-09T01:23:30.762Z,22.93
2018-06-09T01:25:58.584Z,21.03
2018-06-09T01:28:26.088Z,29.10
2018-06-09T01:30:54.217Z,27.70
2018-06-09T01:33:21.793Z,28.77
2018-06-09T01:35:49.321Z,27.50
2018-06-09T01:38:16.900Z,26.37
2018-06-09T01:40:45.932Z,28.33
2018-06-09T01:43:13.404Z,28.67
2018-06-09T01:45:41.168Z,27.57
2018-06-09T01:48:13.492Z,31.60
2018-06-09T01:50:41.919Z,28.00
2018-06-09T01:53:09.479Z,25.90
2018-06-09T01:55:36.982Z,29.00
2018-06-09T01:58:04.493Z,23.73
2018-06-09T02:00:32.048Z,25.23
2018-06-09T02:03:00.523Z,26.60
2018-06-09T02:05:28.077Z,23.90
2018-06-09T02:07:56.637Z,24.40
2018-06-09T02:10:24.173Z,27.30
2018-06-09T02:12:51.670Z,27.83
2018-06-09T02:15:19.174Z,27.70
2018-06-09T02:17:46.652Z,28.37
2018-06-09T02:20:14.816Z,33.70
2018-06-09T02:22:42.300Z,40.73
2018-06-09T02:25:09.831Z,36.70
2018-06-09T02:27:37.320Z,40.33
2018-06-09T02:30:04.854Z,42.23
2018-06-09T02:32:32.376Z,27.90
2018-06-09T02:35:00.261Z,28.70
2018-06-09T02:37:27.744Z,26.73
2018-06-09T02:39:55.277Z,27.83
2018-06-09T02:42:22.827Z,30.30
2018-06-09T02:44:50.344Z,30.40
2018-06-09T02:47:17.952Z,31.43
2018-06-09T02:49:45.460Z,29.57
2018-06-09T02:52:12.960Z,28.50
2018-06-09T02:54:40.525Z,34.27
2018-06-09T02:57:08.056Z,36.93
2018-06-09T02:59:35.611Z,31.17
2018-06-09T03:02:04.025Z,32.30
2018-06-09T03:04:31.551Z,32.53
2018-06-09T03:06:59.064Z,36.33
2018-06-09T03:09:27.530Z,35.87
2018-06-09T03:11:55.082Z,38.30
2018-06-09T03:14:22.668Z,34.47
2018-06-09T03:16:50.200Z,35.57
2018-06-09T03:19:17.716Z,45.03
2018-06-09T03:21:45.228Z,42.80
2018-06-09T03:24:12.709Z,36.17
2018-06-09T03:26:40.285Z,38.73
2018-06-09T03:29:07.757Z,36.90
2018-06-09T03:31:35.264Z,38.17
2018-06-09T03:34:02.796Z,35.57
2018-06-09T03:36:30.303Z,41.67
2018-06-09T03:38:57.836Z,31.30
2018-06-09T03:41:25.388Z,32.70
2018-06-09T03:43:52.914Z,38.50
2018-06-09T03:46:20.456Z,36.87
2018-06-09T03:48:48.012Z,46.63
2018-06-09T03:51:15.524Z,39.40
2018-06-09T03:53:43.043Z,47.93
2018-06-09T03:56:10.585Z,42.27
2018-06-09T03:58:38.112Z,43.00
2018-06-09T04:01:05.608Z,44.70
2018-06-09T04:03:33.132Z,42.07
2018-06-09T04:06:00.585Z,49.60
2018-06-09T04:08:28.126Z,50.30
2018-06-09T04:10:55.597Z,49.07
2018-06-09T04:13:23.065Z,44.63
2018-06-09T04:15:50.579Z,51.33
2018-06-09T04:18:18.073Z,46.20
2018-06-09T04:20:45.613Z,47.80
2018-06-09T04:23:13.947Z,50.70
2018-06-09T04:25:41.541Z,50.40
2018-06-09T04:28:09.396Z,46.03
2018-06-09T04:30:36.889Z,47.30
2018-06-09T04:33:04.450Z,46.60
2018-06-09T04:35:31.990Z,52.93
2018-06-09T04:38:00.364Z,48.50
2018-06-09T04:40:27.895Z,49.83
2018-06-09T04:42:55.503Z,47.83
2018-06-09T04:45:23.043Z,47.03
2018-06-09T04:47:50.517Z,42.80
2018-06-09T04:50:18.609Z,49.67
2018-06-09T04:52:47.083Z,42.27
2018-06-09T04:55:14.613Z,40.20
2018-06-09T04:57:42.129Z,48.47
2018-06-09T05:00:09.662Z,51.67
2018-06-09T05:02:37.171Z,44.27
2018-06-09T05:05:04.671Z,46.67
2018-06-09T05:07:32.177Z,51.87
2018-06-09T05:10:00.199Z,46.03
2018-06-09T05:12:27.715Z,51.63
2018-06-09T05:14:55.255Z,44.20
2018-06-09T05:17:22.751Z,46.37
2018-06-09T05:19:50.385Z,38.13
2018-06-09T05:22:17.769Z,41.63
2018-06-09T05:24:45.263Z,39.30
2018-06-09T05:27:12.785Z,41.57
2018-06-09T05:29:40.403Z,43.57
2018-06-09T05:32:07.962Z,47.03
2018-06-09T05:34:35.584Z,40.77
2018-06-09T05:37:03.144Z,40.07
2018-06-09T05:39:30.689Z,43.47
2018-06-09T05:41:58.165Z,39.60
2018-06-09T05:44:26.675Z,40.17
2018-06-09T05:46:54.180Z,42.47
2018-06-09T05:49:21.644Z,47.13
2018-06-09T05:51:49.283Z,42.40
2018-06-09T05:54:16.845Z,37.67
2018-06-09T05:56:44.381Z,34.27
2018-06-09T05:59:11.883Z,39.90
2018-06-09T06:01:39.463Z,37.60
2018-06-09T06:04:07.039Z,35.97
2018-06-09T06:06:34.624Z,36.30
2018-06-09T06:09:02.498Z,40.97
2018-06-09T06:11:29.904Z,35.77
2018-06-09T06:13:57.516Z,31.43
2018-06-09T06:16:25.005Z,31.50
2018-06-09T06:18:52.556Z,33.00
2018-06-09T06:21:20.082Z,39.63
2018-06-09T06:23:48.453Z,31.63
2018-06-09T06:26:15.879Z,38.20
2018-06-09T06:28:44.129Z,30.57
2018-06-09T06:31:11.945Z,27.77
2018-06-09T06:33:39.457Z,31.27
2018-06-09T06:36:06.985Z,28.07
2018-06-09T06:38:34.466Z,27.87
2018-06-09T06:41:02.331Z,25.43
2018-06-09T06:43:29.780Z,25.40
2018-06-09T06:45:57.385Z,21.70
2018-06-09T06:48:24.879Z,24.60
2018-06-09T06:50:52.459Z,24.40
2018-06-09T06:53:21.796Z,21.73
2018-06-09T06:55:49.275Z,21.90
2018-06-09T06:58:16.778Z,23.23
2018-06-09T07:00:44.284Z,22.57
2018-06-09T07:03:12.132Z,20.63
2018-06-09T07:05:39.754Z,24.63
2018-06-09T07:08:08.028Z,21.47
2018-06-09T07:10:35.534Z,20.17
2018-06-09T07:13:03.542Z,22.13
2018-06-09T07:15:31.048Z,20.17
2018-06-09T07:17:58.657Z,23.00
2018-06-09T07:20:26.169Z,21.43
2018-06-09T07:22:53.789Z,24.47
2018-06-09T07:25:22.080Z,23.20
2018-06-09T07:27:50.475Z,21.83
2018-06-09T07:30:20.785Z,21.30
2018-06-09T07:32:49.370Z,19.00
2018-06-09T07:35:17.188Z,19.30
2018-06-09T07:37:45.300Z,19.43
2018-06-09T07:40:12.864Z,17.00
2018-06-09T07:42:42.266Z,19.40
2018-06-09T07:45:10.258Z,23.30
2018-06-09T07:47:37.786Z,19.27
2018-06-09T07:50:05.323Z,18.13
2018-06-09T07:52:35.103Z,18.47
2018-06-09T07:55:02.656Z,19.23
2018-06-09T07:57:30.161Z,18.43
2018-06-09T07:59:57.731Z,19.20
2018-06-09T08:02:26.193Z,25.97
2018-06-09T08:04:53.772Z,24.83
2018-06-09T08:07:22.042Z,20.67
2018-06-09T08:09:50.090Z,18.53
2018-06-09T08:12:17.583Z,21.40
2018-06-09T08:14:45.152Z,22.23
2018-06-09T08:17:13.161Z,19.60
2018-06-09T08:19:40.599Z,17.40
2018-06-09T08:22:08.113Z,17.60
2018-06-09T08:24:37.090Z,16.23
2018-06-09T08:27:07.492Z,17.67
2018-06-09T08:29:35.031Z,18.17
2018-06-09T08:32:05.131Z,17.43
2018-06-09T08:34:34.381Z,18.17
2018-06-09T08:37:01.928Z,19.60
2018-06-09T08:39:32.674Z,16.07
2018-06-09T08:42:01.695Z,15.57
2018-06-09T08:44:30.492Z,14.70
2018-06-09T08:46:59.668Z,17.90
2018-06-09T08:49:35.066Z,13.40
2018-06-09T08:52:04.100Z,18.73
2018-06-09T08:54:31.729Z,16.97
2018-06-09T08:56:59.257Z,15.87
2018-06-09T08:59:27.824Z,17.47
2018-06-09T09:01:55.316Z,13.10
2018-06-09T09:04:22.862Z,18.47
2018-06-09T09:06:50.967Z,15.40
2018-06-09T09:09:18.591Z,16.97
2018-06-09T09:11:46.100Z,17.20
2018-06-09T09:14:14.190Z,19.73
2018-06-09T09:16:41.719Z,16.70
2018-06-09T09:19:09.320Z,18.30
2018-06-09T09:21:37.805Z,14.20
2018-06-09T09:24:05.456Z,14.37
2018-06-09T09:26:33.072Z,20.43
2018-06-09T09:29:00.573Z,15.53
2018-06-09T09:31:28.123Z,12.67
2018-06-09T09:33:56.343Z,15.80
2018-06-09T09:36:24.004Z,17.73
2018-06-09T09:38:51.504Z,15.60
2018-06-09T09:41:19.058Z,14.30
2018-06-09T09:43:46.550Z,14.73
2018-06-09T09:46:14.288Z,16.20
2018-06-09T09:48:42.404Z,15.83
2018-06-09T09:51:10.006Z,20.93
2018-06-09T09:53:37.453Z,17.53
2018-06-09T09:56:06.381Z,17.03
2018-06-09T09:58:34.012Z,14.27
2018-06-09T10:01:01.533Z,13.77
2018-06-09T10:03:29.079Z,14.83
2018-06-09T10:05:56.672Z,13.20
2018-06-09T10:08:24.230Z,13.77
2018-06-09T10:10:51.671Z,16.17
2018-06-09T10:13:19.192Z,15.60
2018-06-09T10:15:46.793Z,19.70
2018-06-09T10:18:14.232Z,19.93
2018-06-09T10:20:41.815Z,16.57
2018-06-09T10:23:09.555Z,22.23
2018-06-09T10:25:37.069Z,19.33
2018-06-09T10:28:04.630Z,15.30
2018-06-09T10:30:32.237Z,12.30
2018-06-09T10:32:59.797Z,18.07
2018-06-09T10:35:27.500Z,15.47
2018-06-09T10:37:55.080Z,14.20
2018-06-09T10:40:22.592Z,14.73
2018-06-09T10:42:50.259Z,16.87
2018-06-09T10:45:17.930Z,13.07
2018-06-09T10:47:45.380Z,17.80
2018-06-09T10:50:12.976Z,17.30
2018-06-09T10:52:40.497Z,18.37
2018-06-09T10:55:08.342Z,18.30
2018-06-09T10:57:35.942Z,13.40
2018-06-09T11:00:03.764Z,16.00
2018-06-09T11:02:31.251Z,17.00
2018-06-09T11:05:00.561Z,21.30
2018-06-09T11:07:28.315Z,16.60
2018-06-09T11:09:57.346Z,22.23
2018-06-09T11:12:25.264Z,13.30
2018-06-09T11:24:37.939Z,15.57
2018-06-09T11:27:06.610Z,19.03
2018-06-09T11:29:35.112Z,16.97
2018-06-09T11:32:02.904Z,20.27
2018-06-09T11:34:30.526Z,29.20
2018-06-09T11:36:58.080Z,35.17
2018-06-09T11:39:29.321Z,38.67
2018-06-09T11:41:57.022Z,30.67
2018-06-09T11:44:24.508Z,30.37
2018-06-09T11:46:52.102Z,45.50
2018-06-09T11:49:19.609Z,53.27
2018-06-09T11:51:47.119Z,29.67
2018-06-09T11:54:14.532Z,35.03
2018-06-09T11:56:42.052Z,29.23
2018-06-09T11:59:10.912Z,18.10
2018-06-09T12:01:38.398Z,18.80
2018-06-09T12:04:05.935Z,15.83
2018-06-09T12:06:33.439Z,20.70
2018-06-09T12:09:00.984Z,17.37
2018-06-09T12:11:28.533Z,14.63
2018-06-09T12:13:55.956Z,17.60
2018-06-09T12:16:23.465Z,28.23
2018-06-09T12:18:50.880Z,17.90
2018-06-09T12:21:18.270Z,20.97
2018-06-09T12:23:46.057Z,17.20
2018-06-09T12:26:14.151Z,17.60
2018-06-09T12:28:41.604Z,19.13
2018-06-09T12:31:09.127Z,13.30
2018-06-09T12:33:37.365Z,13.80
2018-06-09T12:36:04.999Z,17.07
2018-06-09T12:38:32.532Z,13.70
2018-06-09T12:41:00.135Z,14.67
2018-06-09T12:43:28.328Z,14.87
2018-06-09T12:45:55.885Z,11.97
2018-06-09T12:48:23.414Z,14.23
2018-06-09T12:50:51.217Z,17.40
2018-06-09T12:53:19.285Z,15.17
2018-06-09T12:55:46.909Z,15.37
2018-06-09T12:58:15.210Z,16.40
2018-06-09T13:00:42.753Z,15.57
2018-06-09T13:03:10.324Z,15.07
2018-06-09T13:05:37.914Z,14.53
2018-06-09T13:08:05.400Z,15.40
2018-06-09T13:10:32.876Z,15.03
2018-06-09T13:13:00.369Z,14.13
2018-06-09T13:15:27.942Z,18.03
2018-06-09T13:17:55.577Z,15.80
2018-06-09T13:20:23.276Z,15.03
2018-06-09T13:22:51.139Z,15.63
2018-06-09T13:25:19.175Z,17.13
2018-06-09T13:27:47.433Z,20.07
2018-06-09T13:30:15.039Z,15.83
2018-06-09T13:32:42.804Z,15.17
2018-06-09T13:35:10.441Z,17.27
2018-06-09T13:37:40.046Z,16.80
2018-06-09T13:40:07.580Z,15.43
2018-06-09T13:42:35.121Z,15.27
2018-06-09T13:45:02.722Z,16.30
2018-06-09T13:47:30.269Z,15.53
2018-06-09T13:49:57.822Z,12.73
2018-06-09T13:52:25.361Z,12.13
2018-06-09T13:54:52.882Z,17.17
2018-06-09T13:57:21.007Z,12.40
2018-06-09T13:59:48.615Z,13.63
2018-06-09T14:02:16.049Z,11.63
2018-06-09T14:04:43.564Z,16.70
2018-06-09T14:07:11.153Z,11.43
2018-06-09T14:09:38.691Z,13.13
2018-06-09T14:14:06.017Z,14.27
2018-06-09T14:16:33.516Z,11.90
2018-06-09T14:19:01.048Z,14.87
2018-06-09T14:21:28.534Z,14.93
2018-06-09T14:23:56.138Z,18.40
2018-06-09T14:26:23.677Z,53.17
2018-06-09T14:28:51.174Z,44.10
2018-06-09T14:31:18.709Z,14.90
2018-06-09T14:33:46.279Z,16.20
2018-06-09T14:36:13.824Z,20.53
2018-06-09T14:38:41.417Z,19.70
2018-06-09T14:41:09.149Z,16.57
2018-06-09T14:43:36.576Z,19.93
2018-06-09T14:46:04.175Z,24.10
2018-06-09T14:48:32.219Z,20.47
2018-06-09T14:50:59.926Z,26.07
2018-06-09T14:53:27.399Z,24.10
2018-06-09T14:55:54.950Z,27.90
2018-06-09T14:58:22.391Z,25.80
2018-06-09T15:00:49.993Z,29.83
2018-06-09T15:03:17.474Z,26.20
2018-06-09T15:05:45.030Z,19.97
2018-06-09T15:08:12.510Z,27.33
2018-06-09T15:10:41.082Z,27.60
2018-06-09T15:13:08.878Z,27.43
2018-06-09T15:15:36.526Z,30.70
2018-06-09T15:18:07.883Z,30.13
2018-06-09T15:20:37.802Z,27.63
2018-06-09T15:23:05.279Z,31.90
2018-06-09T15:25:33.416Z,31.33
2018-06-09T15:28:01.027Z,26.30
2018-06-09T15:30:28.712Z,34.13
2018-06-09T15:32:56.237Z,28.47
2018-06-09T15:35:23.897Z,36.67
2018-06-09T15:37:51.431Z,43.43
2018-06-09T15:40:18.894Z,43.60
2018-06-09T15:42:46.340Z,42.30
2018-06-09T15:45:13.891Z,49.50
2018-06-09T15:47:41.433Z,50.23
2018-06-09T15:50:08.971Z,50.03
2018-06-09T15:52:36.511Z,46.03
2018-06-09T15:55:04.050Z,43.13
2018-06-09T15:57:31.581Z,45.07
2018-06-09T15:59:59.195Z,55.93
2018-06-09T16:02:27.299Z,50.07
2018-06-09T16:04:54.866Z,41.60
2018-06-09T16:07:22.475Z,37.17
2018-06-09T16:09:49.935Z,36.43
2018-06-09T16:12:17.459Z,34.63
2018-06-09T16:14:45.023Z,38.83
2018-06-09T16:17:12.567Z,39.13
2018-06-09T16:19:40.096Z,36.77
2018-06-09T16:22:08.149Z,38.50
2018-06-09T16:24:35.657Z,44.57
2018-06-09T16:27:03.186Z,42.47
2018-06-09T16:29:30.795Z,46.13
2018-06-09T16:31:58.900Z,44.37
2018-06-09T16:34:27.133Z,43.87
2018-06-09T16:36:55.604Z,51.40
2018-06-09T16:49:08.191Z,46.60
2018-06-09T16:51:36.309Z,56.83
2018-06-09T16:54:04.848Z,54.77
2018-06-09T16:56:32.403Z,52.63
2018-06-09T16:58:59.899Z,64.10
2018-06-09T17:01:27.444Z,58.23
2018-06-09T17:03:55.258Z,67.13
2018-06-09T17:06:22.883Z,50.03
2018-06-09T17:08:50.463Z,50.97
2018-06-09T17:11:18.013Z,51.57
2018-06-09T17:13:46.023Z,43.03
2018-06-09T17:16:13.620Z,53.30
2018-06-09T17:18:41.142Z,47.00
2018-06-09T17:21:08.669Z,50.00
2018-06-09T17:23:36.211Z,50.17
2018-06-09T17:26:03.760Z,43.00
2018-06-09T17:28:31.277Z,42.80
2018-06-09T17:30:58.784Z,46.27
2018-06-09T17:33:26.237Z,45.03
2018-06-09T17:35:53.824Z,43.10
2018-06-09T17:38:21.362Z,42.13
2018-06-09T17:40:48.862Z,48.43
2018-06-09T17:43:16.439Z,47.63
2018-06-09T17:45:44.075Z,44.40
2018-06-09T17:48:11.617Z,46.40
2018-06-09T17:50:39.129Z,46.73
2018-06-09T17:53:06.746Z,39.60
2018-06-09T17:55:34.257Z,39.13
2018-06-09T17:58:02.652Z,43.43
2018-06-09T18:00:30.220Z,89.90
2018-06-09T18:02:57.814Z,45.53
2018-06-09T18:05:25.367Z,46.30
2018-06-09T18:07:53.451Z,45.23
2018-06-09T18:10:21.094Z,37.83
2018-06-09T18:12:48.666Z,44.93
2018-06-09T18:15:16.177Z,38.93
2018-06-09T18:17:43.680Z,42.13
2018-06-09T18:20:11.185Z,38.00
2018-06-09T18:22:38.834Z,50.47
2018-06-09T18:25:06.364Z,36.27
2018-06-09T18:27:33.874Z,43.77
2018-06-09T18:30:01.379Z,35.37
2018-06-09T18:32:28.966Z,49.80
2018-06-09T18:34:57.293Z,43.50
2018-06-09T18:37:24.968Z,42.07
2018-06-09T18:39:54.085Z,40.77
2018-06-09T18:42:25.545Z,44.57
2018-06-09T18:44:53.936Z,37.07
2018-06-09T18:47:22.480Z,40.83
2018-06-09T18:49:50.045Z,37.67
2018-06-09T18:52:17.621Z,43.33
2018-06-09T18:54:48.247Z,43.13
2018-06-09T18:57:15.792Z,44.40
2018-06-09T18:59:43.301Z,45.40
2018-06-09T19:02:12.997Z,49.73
2018-06-09T19:04:42.437Z,50.33
2018-06-09T19:07:12.345Z,42.83
2018-06-09T19:09:40.397Z,37.20
2018-06-09T19:12:07.921Z,37.20
2018-06-09T19:14:35.446Z,35.57
2018-06-09T19:17:03.372Z,30.93
2018-06-09T19:19:30.907Z,34.23
2018-06-09T19:21:58.463Z,34.40
2018-06-09T19:24:27.196Z,25.80
2018-06-09T19:26:55.844Z,20.57
2018-06-09T19:29:23.433Z,14.90
2018-06-09T19:31:51.061Z,12.93
2018-06-09T19:34:18.580Z,13.40
2018-06-09T19:36:46.177Z,10.83
2018-06-09T19:39:13.776Z,13.40
2018-06-09T19:41:41.297Z,12.00
2018-06-09T19:44:08.937Z,9.83
2018-06-09T19:46:36.386Z,9.00
2018-06-09T19:49:04.021Z,9.20
2018-06-09T19:51:31.597Z,8.90
2018-06-09T19:53:59.120Z,6.90
2018-06-09T19:56:26.664Z,10.50
2018-06-09T19:58:54.801Z,8.43
2018-06-09T20:01:22.302Z,7.97
2018-06-09T20:03:49.853Z,34.47
2018-06-09T20:06:17.711Z,13.30
2018-06-09T20:08:45.326Z,12.13
2018-06-09T20:11:14.988Z,11.77
2018-06-09T20:13:43.603Z,10.93
2018-06-09T20:16:13.455Z,13.83
2018-06-09T20:18:41.007Z,15.20
2018-06-09T20:21:08.905Z,13.73
2018-06-09T20:23:37.970Z,16.17
2018-06-09T20:26:05.814Z,11.10
2018-06-09T20:28:34.409Z,11.60
2018-06-09T20:31:02.062Z,9.60
2018-06-09T20:33:30.767Z,13.70
2018-06-09T20:35:58.675Z,9.03
2018-06-09T20:38:26.405Z,8.50
2018-06-09T20:40:54.051Z,9.13
2018-06-09T20:46:19.108Z,13.67
2018-06-09T20:48:49.131Z,22.90
2018-06-09T20:51:24.099Z,14.20
2018-06-09T20:53:53.894Z,12.80
2018-06-09T20:56:24.255Z,13.07
2018-06-09T20:58:55.024Z,13.27
2018-06-09T21:01:24.523Z,13.03
2018-06-09T21:03:53.069Z,12.00
2018-06-09T21:06:23.199Z,17.07
2018-06-09T21:08:53.325Z,25.37
2018-06-09T21:11:25.116Z,16.10
2018-06-09T21:13:55.424Z,13.80
2018-06-09T21:16:25.389Z,16.60
2018-06-09T21:18:55.296Z,12.13
2018-06-09T21:21:27.556Z,12.07
2018-06-09T21:23:56.596Z,11.50
2018-06-09T21:27:30.235Z,11.73
2018-06-09T21:30:09.084Z,15.40
2018-06-09T21:32:45.373Z,21.53
2018-06-09T21:35:31.971Z,13.47
2018-06-09T21:38:09.472Z,22.33
2018-06-09T21:40:50.036Z,13.00
2018-06-09T21:43:26.358Z,10.40
2018-06-09T21:55:39.327Z,18.10
2018-06-09T21:58:08.367Z,13.03
2018-06-09T22:00:37.623Z,10.23
2018-06-09T22:03:06.368Z,26.60
2018-06-09T22:05:33.842Z,195.00
2018-06-09T22:08:01.421Z,38.83
2018-06-09T22:10:30.771Z,21.43
2018-06-09T22:13:00.269Z,11.90
2018-06-09T22:15:29.981Z,15.67
2018-06-09T22:17:59.497Z,13.30
2018-06-09T22:20:28.076Z,10.83
2018-06-09T22:22:56.397Z,14.43
2018-06-09T22:25:29.616Z,8.73
2018-06-09T22:27:58.502Z,23.93
2018-06-09T22:30:26.390Z,13.60
2018-06-09T22:32:55.104Z,9.90
2018-06-09T22:35:22.894Z,10.40
2018-06-09T22:37:52.749Z,14.50
2018-06-09T22:40:21.270Z,10.90
2018-06-09T22:42:53.052Z,18.67
2018-06-09T22:45:21.467Z,14.60
2018-06-09T22:47:50.816Z,16.87
2018-06-09T22:50:19.102Z,15.03
2018-06-09T22:52:46.623Z,9.50
2018-06-09T22:55:14.638Z,11.00
2018-06-09T22:57:42.168Z,14.43
2018-06-09T23:00:12.984Z,11.73
2018-06-09T23:02:40.501Z,9.23
2018-06-09T23:05:08.842Z,9.73
2018-06-09T23:07:39.458Z,8.73
2018-06-09T23:10:08.923Z,12.07
2018-06-09T23:12:38.328Z,9.87
2018-06-09T23:15:08.777Z,8.20
2018-06-09T23:17:41.157Z,12.83
2018-06-09T23:20:12.405Z,9.90
2018-06-09T23:22:41.623Z,13.10
2018-06-09T23:25:18.044Z,12.57
2018-06-09T23:27:47.784Z,10.90
2018-06-09T23:40:11.083Z,8.57
2018-06-09T23:42:39.541Z,9.70
2018-06-09T23:45:11.985Z,11.57
2018-06-09T23:47:43.536Z,10.20
2018-06-09T23:50:17.725Z,8.80
2018-06-09T23:52:49.096Z,9.37
2018-06-09T23:55:23.095Z,11.20
2018-06-09T23:57:57.591Z,10.63
